Weather at Ugolny Yuri Ryktheu Airport

Public forecast

Using degrees Celsius for public forecast. Weather courtesy of forecast.io.

Current aviation weather report (METAR) for Ugolny Yuri Ryktheu Airport

Retrieved 2021/07/23 22:00 UTC (49 minutes ago):

UHMA 232200Z 16005MPS 9999 FEW016 SCT048 15/11 Q1012 R01/60D NOSIG RMK TDZ R01/16005G07MPS END R01/17006G08MPS MT OBSC QFE755/1007

Aviation forecast (TAF) for Ugolny Yuri Ryktheu Airport

Retrieved 2021/07/23 21:21 UTC (1 hour ago):

TAF UHMA 231951Z 2321/2421 14003G08MPS 5000 -RA BR SCT007 BKN020 TEMPO 2321/2421 11008G13MPS 1100 SHRA BKN003 BKN015CB